Time;durP1;ratioP1;P1;durP2;ratioP2;P2;SDS_P1;SDS_P2;PMS_P1;PMS_P2;Temp;Humidity;BMP_temperature;BMP_pressure;BME280_temperature;BME280_humidity;BME280_pressure;Samples;Min_cycle;Max_cycle;Signal;HPM_P1;HPM_P2
2022/09/23 00:01:21;;;;;;;16.35;7.95;;;;;;;22.41;38.91;101840.22;5030601;28;20422;-75
2022/09/23 00:03:47;;;;;;;12.50;7.82;;;;;;;22.33;38.89;101829.88;5031931;28;20104;-76
2022/09/23 00:06:18;;;;;;;12.68;8.50;;;;;;;22.26;39.33;101835.56;5031512;28;20498;-76
2022/09/23 00:08:44;;;;;;;12.05;8.57;;;;;;;22.17;39.77;101835.03;5028874;28;20116;-76
2022/09/23 00:11:15;;;;;;;12.15;8.68;;;;;;;22.38;39.22;101828.84;5029224;28;20022;-76
2022/09/23 00:13:42;;;;;;;14.60;8.90;;;;;;;22.30;38.91;101821.19;5010834;28;20041;-75
2022/09/23 00:16:11;;;;;;;12.88;8.77;;;;;;;22.49;38.57;101832.78;5011636;28;20582;-76
2022/09/23 00:18:36;;;;;;;12.02;8.68;;;;;;;22.22;39.26;101825.97;5010930;28;20165;-76
2022/09/23 00:21:08;;;;;;;13.65;9.00;;;;;;;22.10;39.76;101825.53;5030952;28;20477;-76
2022/09/23 00:23:34;;;;;;;12.63;8.68;;;;;;;22.26;39.26;101825.75;5027560;28;20034;-76
2022/09/23 00:26:02;;;;;;;12.18;8.88;;;;;;;21.71;40.47;101818.31;5027095;28;20091;-76
2022/09/23 00:28:29;;;;;;;15.65;9.27;;;;;;;22.00;39.65;101816.25;5010789;28;20387;-76
2022/09/23 00:30:54;;;;;;;13.75;9.60;;;;;;;22.22;39.48;101817.97;5026039;28;20030;-76
2022/09/23 00:33:19;;;;;;;14.65;9.48;;;;;;;22.31;38.75;101812.22;5011330;28;20025;-77
2022/09/23 00:35:45;;;;;;;13.68;9.63;;;;;;;22.09;39.62;101817.63;5011599;28;20112;-77
2022/09/23 00:38:10;;;;;;;11.27;8.82;;;;;;;22.25;39.09;101820.50;5024329;28;20029;-76
2022/09/23 00:40:44;;;;;;;11.25;8.63;;;;;;;22.29;39.07;101817.63;5029023;28;20028;-74
2022/09/23 00:43:12;;;;;;;13.85;9.70;;;;;;;22.20;39.08;101821.56;5011004;28;20501;-76
2022/09/23 00:45:39;;;;;;;16.73;9.45;;;;;;;21.90;40.16;101812.22;5021705;28;20044;-76
2022/09/23 00:48:07;;;;;;;13.15;9.32;;;;;;;21.89;40.34;101815.84;5030724;28;20371;-76
2022/09/23 00:50:38;;;;;;;12.48;9.13;;;;;;;21.72;40.46;101809.44;5030199;28;20029;-76
2022/09/23 00:53:10;;;;;;;12.60;9.63;;;;;;;21.80;40.46;101807.31;5016465;28;20057;-76
2022/09/23 00:55:46;;;;;;;15.73;9.60;;;;;;;21.80;40.32;101815.28;5020687;28;20029;-76
2022/09/23 00:58:17;;;;;;;10.73;8.82;;;;;;;21.67;40.47;101806.94;5030544;28;20508;-76
2022/09/23 01:00:45;;;;;;;13.40;9.68;;;;;;;21.92;40.00;101805.91;5028459;28;20029;-76
2022/09/23 01:03:11;;;;;;;14.25;9.05;;;;;;;21.63;40.51;101796.50;5010770;28;20041;-76
2022/09/23 01:05:38;;;;;;;12.88;9.40;;;;;;;21.90;39.99;101797.13;5011050;28;20042;-76
2022/09/23 01:08:06;;;;;;;13.77;9.10;;;;;;;21.86;40.17;101799.06;5011484;28;20168;-76
2022/09/23 01:11:06;;;;;;;14.60;8.82;;;;;;;21.57;40.64;101794.06;5009935;28;20025;-75
2022/09/23 01:13:55;;;;;;;11.52;9.20;;;;;;;21.61;40.34;101795.69;5017050;28;20083;-76
2022/09/23 01:17:01;;;;;;;10.90;8.75;;;;;;;21.75;40.47;101797.75;5016675;28;20038;-76
2022/09/23 01:19:35;;;;;;;12.00;8.15;;;;;;;21.74;40.16;101796.91;5008813;28;20725;-76
2022/09/23 01:22:18;;;;;;;11.35;8.80;;;;;;;21.90;39.83;101801.56;5017458;28;20029;-76
2022/09/23 01:25:02;;;;;;;12.00;9.35;;;;;;;21.89;39.95;101794.53;5025821;28;20129;-76
2022/09/23 01:27:50;;;;;;;11.32;9.25;;;;;;;21.79;40.22;101789.59;5026197;28;20029;-76
2022/09/23 01:30:37;;;;;;;11.07;9.00;;;;;;;21.59;40.13;101786.91;5010446;28;20033;-76
2022/09/23 01:33:07;;;;;;;12.10;8.85;;;;;;;21.88;39.96;101785.69;5010507;28;20543;-75
2022/09/23 01:35:50;;;;;;;16.35;7.93;;;;;;;21.75;40.35;101792.44;5016025;28;20503;-76
2022/09/23 01:38:33;;;;;;;10.63;8.90;;;;;;;21.31;40.40;101777.38;5029257;28;20025;-76
2022/09/23 01:41:08;;;;;;;12.65;8.95;;;;;;;21.33;40.51;101778.16;5030080;28;20053;-76
2022/09/23 01:43:53;;;;;;;14.07;8.98;;;;;;;21.62;39.44;101784.13;5028795;28;20085;-75
2022/09/23 01:46:34;;;;;;;13.40;9.10;;;;;;;21.21;40.30;101776.00;5017506;28;20481;-76
2022/09/23 01:49:05;;;;;;;12.93;8.73;;;;;;;20.91;40.26;101773.59;5024670;28;20040;-76
2022/09/23 01:51:36;;;;;;;11.32;8.82;;;;;;;21.58;39.19;101772.72;5030280;28;20026;-76
2022/09/23 01:54:23;;;;;;;14.57;8.30;;;;;;;21.43;39.86;101773.34;5011331;28;20438;-75
2022/09/23 01:57:00;;;;;;;11.80;9.30;;;;;;;21.56;38.99;101773.75;5024189;28;20424;-75
2022/09/23 01:59:37;;;;;;;11.38;8.95;;;;;;;21.75;38.88;101764.06;5062453;28;20432;-76
2022/09/23 02:02:20;;;;;;;12.80;8.88;;;;;;;21.70;38.61;101763.38;5023957;28;20477;-76
2022/09/23 02:05:09;;;;;;;11.35;9.02;;;;;;;21.79;38.36;101768.31;5028806;28;20025;-75
2022/09/23 02:07:41;;;;;;;12.45;8.30;;;;;;;21.48;38.84;101761.56;5029547;28;20378;-76
2022/09/23 02:10:15;;;;;;;20.50;8.98;;;;;;;21.29;38.68;101747.31;5030262;28;20029;-75
2022/09/23 02:12:44;;;;;;;11.10;8.60;;;;;;;21.24;39.46;101750.16;5028513;28;20499;-75
2022/09/23 02:15:15;;;;;;;13.77;8.57;;;;;;;21.34;39.03;101745.34;5013550;28;20489;-76
2022/09/23 02:17:53;;;;;;;12.15;8.77;;;;;;;21.68;38.35;101746.63;5014113;28;20115;-76
2022/09/23 02:20:26;;;;;;;10.98;7.90;;;;;;;21.45;38.87;101744.91;5055797;28;20037;-76
2022/09/23 02:23:00;;;;;;;16.95;8.80;;;;;;;21.39;38.93;101746.03;5012790;28;20149;-76
2022/09/23 02:25:34;;;;;;;12.97;8.67;;;;;;;21.28;39.13;101734.94;5021619;28;20344;-76
2022/09/23 02:28:17;;;;;;;11.65;9.05;;;;;;;21.28;39.02;101734.94;5018603;28;20025;-76
2022/09/23 02:30:59;;;;;;;10.77;7.88;;;;;;;21.58;38.61;101745.28;5013400;28;20030;-75
2022/09/23 02:33:35;;;;;;;14.38;7.97;;;;;;;20.74;39.43;101732.63;5046468;28;20025;-75
2022/09/23 02:36:20;;;;;;;13.25;8.63;;;;;;;21.30;38.60;101738.41;5016381;28;20083;-75
2022/09/23 02:38:56;;;;;;;13.05;8.00;;;;;;;21.71;37.74;101730.53;5030857;28;20033;-75
2022/09/23 02:41:41;;;;;;;11.40;8.13;;;;;;;21.40;38.40;101734.44;5017560;28;20037;-76
2022/09/23 02:44:15;;;;;;;11.00;8.60;;;;;;;21.75;37.72;101723.25;5012503;28;20037;-76
2022/09/23 02:46:44;;;;;;;11.68;8.35;;;;;;;21.22;38.85;101721.91;5053589;28;20029;-75
2022/09/23 02:49:17;;;;;;;14.18;8.80;;;;;;;21.33;38.47;101717.00;5032792;28;20028;-76
2022/09/23 02:51:44;;;;;;;11.60;8.48;;;;;;;21.52;37.67;101720.66;5050399;28;20403;-76
2022/09/23 02:54:16;;;;;;;12.32;8.38;;;;;;;21.50;38.32;101717.19;5027387;28;20021;-76
2022/09/23 02:56:41;;;;;;;17.10;8.93;;;;;;;21.52;37.62;101725.09;5016846;28;20029;-76
2022/09/23 02:59:08;;;;;;;14.30;8.57;;;;;;;21.59;37.73;101723.06;5031908;28;20094;-76
2022/09/23 03:01:55;;;;;;;19.35;10.00;;;;;;;21.90;37.44;101711.97;5014236;28;20026;-76
2022/09/23 03:04:33;;;;;;;10.48;8.27;;;;;;;22.07;37.25;101703.22;5045931;28;20026;-76
2022/09/23 03:07:19;;;;;;;11.60;8.60;;;;;;;21.73;37.35;101710.03;5044680;28;20036;-76
2022/09/23 03:10:08;;;;;;;13.73;8.98;;;;;;;22.01;37.37;101706.19;5012414;28;20230;-75
2022/09/23 03:12:42;;;;;;;10.50;8.50;;;;;;;21.62;37.42;101706.97;5015908;28;20029;-75
2022/09/23 03:15:08;;;;;;;10.57;7.85;;;;;;;21.67;37.64;101694.34;5027447;28;20065;-76
2022/09/23 03:17:51;;;;;;;11.48;8.35;;;;;;;21.50;37.89;101697.69;5031299;28;20084;-75
2022/09/23 03:20:39;;;;;;;14.15;8.30;;;;;;;21.82;37.24;101704.31;5030937;28;20055;-75
2022/09/23 03:23:09;;;;;;;12.30;8.35;;;;;;;22.25;36.82;101696.22;5015484;28;20058;-76
2022/09/23 03:25:40;;;;;;;12.80;8.75;;;;;;;21.79;37.15;101704.47;5023857;28;20590;-76
2022/09/23 03:28:07;;;;;;;11.45;8.02;;;;;;;21.78;37.89;101701.88;5030773;28;20037;-76
2022/09/23 03:30:36;;;;;;;15.32;7.90;;;;;;;21.96;37.35;101694.88;5020942;28;20044;-76
2022/09/23 03:33:05;;;;;;;10.95;8.05;;;;;;;22.29;36.31;101694.28;5011997;28;20026;-76
2022/09/23 03:36:48;;;;;;;11.43;9.15;;;;;;;21.90;37.61;101701.34;5011866;28;20025;-76
2022/09/23 03:38:25;;;;;;;10.30;7.80;;;;;;;21.97;37.47;101702.78;5025001;28;20029;-76
2022/09/23 03:40:53;;;;;;;12.82;7.85;;;;;;;22.06;37.30;101696.16;5018847;28;20040;-75
2022/09/23 03:43:19;;;;;;;10.23;8.15;;;;;;;21.89;37.50;101704.06;5027180;28;20510;-75
2022/09/23 03:45:45;;;;;;;12.80;9.05;;;;;;;22.01;36.94;101698.19;5028442;28;20069;-76
2022/09/23 03:48:10;;;;;;;11.82;8.40;;;;;;;22.07;37.00;101697.06;5042792;28;20083;-76
2022/09/23 03:50:35;;;;;;;16.30;8.55;;;;;;;21.95;37.62;101693.13;5026318;28;20087;-75
2022/09/23 03:53:01;;;;;;;9.10;7.68;;;;;;;22.01;37.84;101687.56;5022123;28;20029;-75
2022/09/23 03:55:26;;;;;;;12.82;8.30;;;;;;;22.06;38.07;101684.66;5026980;28;20032;-76
2022/09/23 03:57:52;;;;;;;9.73;7.57;;;;;;;21.93;37.95;101687.03;5026035;28;20469;-76
2022/09/23 04:00:17;;;;;;;10.00;8.23;;;;;;;22.28;36.97;101679.22;5023229;28;20029;-76
2022/09/23 04:02:43;;;;;;;10.80;8.10;;;;;;;21.84;37.60;101667.88;5027634;28;20026;-76
2022/09/23 04:05:10;;;;;;;11.65;8.35;;;;;;;22.24;36.95;101662.53;5031582;28;20137;-76
2022/09/23 04:07:36;;;;;;;10.57;8.20;;;;;;;21.75;37.99;101665.63;5016373;28;20053;-76
2022/09/23 04:10:02;;;;;;;12.05;8.68;;;;;;;21.85;37.72;101666.06;5017602;28;20036;-76
2022/09/23 04:12:27;;;;;;;14.13;7.40;;;;;;;22.04;37.30;101666.13;5030873;28;20025;-75
2022/09/23 04:14:52;;;;;;;11.02;7.80;;;;;;;22.02;37.62;101652.00;5030644;28;20095;-76
2022/09/23 04:17:18;;;;;;;8.45;6.97;;;;;;;22.16;37.50;101659.34;5018521;28;20083;-76
2022/09/23 04:19:44;;;;;;;11.57;7.93;;;;;;;22.15;37.55;101653.16;5011328;28;20033;-76
2022/09/23 04:22:09;;;;;;;12.07;8.23;;;;;;;22.05;37.72;101649.22;5028308;28;20032;-76
2022/09/23 04:24:35;;;;;;;11.35;8.50;;;;;;;22.15;37.85;101655.84;5029767;28;20079;-76
2022/09/23 04:27:00;;;;;;;10.73;7.60;;;;;;;21.86;37.35;101655.34;5030213;28;20025;-75
2022/09/23 04:29:26;;;;;;;11.15;8.27;;;;;;;22.11;37.21;101651.59;5026524;28;20029;-76
2022/09/23 04:31:52;;;;;;;10.27;8.23;;;;;;;22.30;36.99;101646.28;5030503;28;20029;-75
2022/09/23 04:34:18;;;;;;;20.08;7.97;;;;;;;22.08;37.31;101649.06;5030480;28;20026;-76
2022/09/23 04:36:44;;;;;;;9.82;8.45;;;;;;;22.38;36.84;101645.97;5023071;28;20867;-75
2022/09/23 04:39:10;;;;;;;13.93;9.55;;;;;;;22.52;36.47;101645.31;5026481;28;20030;-75
2022/09/23 04:41:36;;;;;;;11.60;7.40;;;;;;;22.48;36.71;101649.06;5030572;28;20014;-76
2022/09/23 04:44:02;;;;;;;11.50;8.32;;;;;;;22.50;36.92;101642.72;5029197;28;20050;-76
2022/09/23 04:46:27;;;;;;;11.30;7.85;;;;;;;21.96;38.08;101644.31;5016809;28;20036;-76
2022/09/23 04:48:53;;;;;;;9.43;7.90;;;;;;;22.15;37.50;101647.00;5027280;28;20040;-76
2022/09/23 04:51:21;;;;;;;12.20;7.45;;;;;;;22.29;37.63;101649.00;5014419;28;20084;-76
2022/09/23 04:53:49;;;;;;;8.43;6.75;;;;;;;22.43;37.20;101641.25;5024990;28;20025;-76
2022/09/23 04:56:21;;;;;;;10.95;7.80;;;;;;;22.19;38.52;101646.78;5030253;28;20029;-75
2022/09/23 04:58:46;;;;;;;8.73;7.07;;;;;;;22.23;37.60;101647.50;5029658;28;20032;-76
2022/09/23 05:01:14;;;;;;;12.52;7.28;;;;;;;22.10;38.01;101660.50;5012697;28;20026;-76
2022/09/23 05:03:41;;;;;;;8.48;7.57;;;;;;;22.10;38.80;101652.50;5025109;28;20112;-76
2022/09/23 05:06:07;;;;;;;8.80;7.13;;;;;;;22.38;38.35;101656.63;5027908;28;20072;-75
2022/09/23 05:08:33;;;;;;;20.48;8.13;;;;;;;22.15;38.56;101658.50;5038630;28;20017;-76
2022/09/23 05:11:01;;;;;;;10.13;7.28;;;;;;;22.47;37.81;101656.16;5058509;28;20037;-75
2022/09/23 05:13:26;;;;;;;17.35;8.52;;;;;;;22.38;38.48;101659.28;5028557;28;20034;-76
2022/09/23 05:15:59;;;;;;;9.98;7.30;;;;;;;22.42;38.17;101666.19;5030248;28;20026;-75
2022/09/23 05:18:34;;;;;;;10.38;7.65;;;;;;;22.51;37.90;101665.72;5045038;28;20049;-76
2022/09/23 05:21:01;;;;;;;10.60;7.22;;;;;;;22.38;37.66;101659.28;5044397;28;20029;-76
2022/09/23 05:23:27;;;;;;;11.30;7.35;;;;;;;22.63;37.42;101658.13;5050051;28;20044;-75
2022/09/23 05:26:01;;;;;;;11.68;7.80;;;;;;;22.93;37.24;101654.88;5028454;28;20021;-75
2022/09/23 05:28:31;;;;;;;10.68;7.85;;;;;;;22.28;37.79;101652.59;5013251;28;20114;-77
2022/09/23 05:31:11;;;;;;;11.50;7.40;;;;;;;22.75;37.12;101649.53;5030418;28;20033;-76
2022/09/23 05:33:36;;;;;;;10.43;7.15;;;;;;;22.97;36.40;101656.44;5008893;28;20037;-76
2022/09/23 05:36:03;;;;;;;9.55;7.00;;;;;;;22.84;36.91;101657.06;5029320;28;20029;-75
2022/09/23 05:38:30;;;;;;;11.55;8.23;;;;;;;22.73;37.26;101659.38;5053913;28;20120;-75
2022/09/23 05:40:57;;;;;;;10.60;7.35;;;;;;;22.60;37.18;101664.44;5027413;28;20022;-75
2022/09/23 05:43:23;;;;;;;10.20;7.53;;;;;;;22.87;36.75;101664.03;5029759;28;20050;-75
2022/09/23 05:45:49;;;;;;;9.57;7.05;;;;;;;22.91;37.01;101667.44;5030966;28;20037;-75
2022/09/23 05:48:14;;;;;;;10.82;6.72;;;;;;;22.51;38.02;101676.38;5028643;28;20025;-76
2022/09/23 05:50:48;;;;;;;8.73;7.18;;;;;;;22.45;38.52;101671.38;5021348;28;20057;-74
2022/09/23 05:53:13;;;;;;;11.38;7.38;;;;;;;22.79;37.85;101664.44;5015339;28;20037;-75
2022/09/23 05:55:39;;;;;;;9.35;7.53;;;;;;;22.59;38.44;101677.84;5013283;28;20084;-74
2022/09/23 05:58:04;;;;;;;10.40;7.43;;;;;;;22.67;37.85;101660.56;5015249;28;20529;-75
2022/09/23 06:00:30;;;;;;;11.93;7.57;;;;;;;22.84;37.50;101665.06;5048164;28;20026;-75
2022/09/23 06:02:55;;;;;;;8.18;6.82;;;;;;;22.57;37.32;101671.72;5063192;28;20026;-76
2022/09/23 06:05:20;;;;;;;10.18;7.05;;;;;;;22.23;38.03;101670.59;5033186;28;20052;-75
2022/09/23 06:07:46;;;;;;;8.88;7.40;;;;;;;22.55;37.58;101665.63;5022463;28;20108;-74
2022/09/23 06:10:11;;;;;;;9.73;6.90;;;;;;;22.86;37.14;101665.84;5032658;28;20379;-75
2022/09/23 06:12:36;;;;;;;11.52;7.00;;;;;;;22.76;37.27;101663.72;5046635;28;20106;-74
2022/09/23 06:15:02;;;;;;;20.27;8.13;;;;;;;22.74;37.51;101666.44;5023017;28;20033;-75
2022/09/23 06:17:27;;;;;;;10.55;7.40;;;;;;;23.00;37.31;101661.66;5024982;28;20040;-76
2022/09/23 06:19:53;;;;;;;11.43;7.05;;;;;;;23.02;36.97;101665.09;5035756;28;20090;-75
2022/09/23 06:22:18;;;;;;;8.35;6.68;;;;;;;22.98;37.49;101664.38;5034055;28;20036;-76
2022/09/23 06:24:43;;;;;;;12.45;7.18;;;;;;;23.23;36.90;101662.34;5032977;28;20025;-75
2022/09/23 06:27:09;;;;;;;10.45;6.78;;;;;;;23.42;36.93;101660.44;5029355;28;20101;-76
2022/09/23 06:29:35;;;;;;;12.45;7.28;;;;;;;23.24;36.57;101659.59;5014511;28;20449;-75
2022/09/23 06:32:01;;;;;;;10.73;7.10;;;;;;;22.62;37.96;101656.38;5013482;28;20122;-75
2022/09/23 06:34:27;;;;;;;10.63;7.55;;;;;;;23.18;36.95;101666.09;5013807;28;20060;-76
2022/09/23 06:36:54;;;;;;;14.15;7.53;;;;;;;23.25;37.10;101655.97;5020593;28;20556;-76
2022/09/23 06:39:19;;;;;;;10.25;7.22;;;;;;;23.32;37.01;101661.88;5027995;28;20037;-76
2022/09/23 06:41:45;;;;;;;13.30;7.68;;;;;;;23.28;37.12;101660.31;5031121;28;20595;-76
2022/09/23 06:44:11;;;;;;;10.43;6.78;;;;;;;23.49;36.77;101658.34;5031849;28;20041;-76
2022/09/23 06:46:36;;;;;;;11.50;7.93;;;;;;;23.54;36.95;101650.97;5026745;28;20497;-75
2022/09/23 06:49:02;;;;;;;13.13;7.82;;;;;;;23.55;37.09;101656.22;5031066;28;20032;-76
2022/09/23 06:51:28;;;;;;;13.15;6.63;;;;;;;23.95;36.56;101657.78;5028998;28;20029;-76
2022/09/23 06:53:54;;;;;;;12.80;7.32;;;;;;;24.08;36.29;101653.47;5024333;28;20026;-75
2022/09/23 06:56:20;;;;;;;12.93;7.38;;;;;;;23.31;37.15;101649.47;5031374;28;20060;-75
2022/09/23 06:58:46;;;;;;;10.82;7.22;;;;;;;23.45;37.06;101644.31;5029745;28;20033;-75
2022/09/23 07:01:15;;;;;;;12.27;7.18;;;;;;;23.85;36.70;101650.22;5012563;28;20478;-75
2022/09/23 07:03:40;;;;;;;10.07;7.15;;;;;;;23.78;36.01;101654.16;5012400;28;20446;-75
2022/09/23 07:06:06;;;;;;;10.80;6.68;;;;;;;24.08;36.24;101644.63;5011946;28;20076;-76
2022/09/23 07:08:32;;;;;;;16.25;7.05;;;;;;;23.70;36.86;101651.88;5017481;28;20462;-75
2022/09/23 07:11:00;;;;;;;13.90;7.38;;;;;;;23.83;36.63;101652.09;5030428;28;20128;-75
2022/09/23 07:13:27;;;;;;;12.45;7.32;;;;;;;24.12;35.63;101649.69;5032665;28;20033;-75
2022/09/23 07:15:55;;;;;;;13.82;6.97;;;;;;;24.14;35.96;101650.50;5027473;28;20022;-75
2022/09/23 07:18:24;;;;;;;10.23;6.60;;;;;;;23.18;38.01;101650.09;5033277;28;20037;-75
2022/09/23 07:20:57;;;;;;;9.93;6.68;;;;;;;22.98;38.02;101656.38;5023050;28;20052;-75
2022/09/23 07:23:24;;;;;;;11.07;7.32;;;;;;;23.71;37.26;101653.63;5011934;28;20505;-75
2022/09/23 07:25:50;;;;;;;12.68;6.70;;;;;;;24.45;35.96;101659.47;5011405;28;20440;-74
2022/09/23 07:28:16;;;;;;;13.55;7.05;;;;;;;24.44;36.34;101652.41;5028016;28;20124;-75
2022/09/23 07:30:42;;;;;;;9.98;6.20;;;;;;;23.78;37.00;101651.50;5016994;28;20045;-75
2022/09/23 07:33:08;;;;;;;8.50;6.43;;;;;;;23.54;37.50;101649.16;5021704;28;20108;-75
2022/09/23 07:35:38;;;;;;;9.18;6.85;;;;;;;23.51;38.55;101646.66;5051487;28;20136;-75
2022/09/23 07:38:03;;;;;;;12.73;6.55;;;;;;;24.08;37.80;101650.81;5024106;28;20119;-75
2022/09/23 07:40:28;;;;;;;15.68;6.65;;;;;;;23.59;37.93;101637.38;5025055;28;20033;-75
2022/09/23 07:42:54;;;;;;;8.98;6.40;;;;;;;23.59;38.57;101642.72;4996062;28;1104518;-75
2022/09/23 07:45:22;;;;;;;13.57;6.70;;;;;;;23.28;38.90;101646.97;5014028;28;20034;-75
2022/09/23 07:47:48;;;;;;;11.55;6.28;;;;;;;24.11;37.63;101639.97;5025666;28;20116;-75
2022/09/23 07:50:14;;;;;;;11.98;6.75;;;;;;;24.95;35.61;101646.00;5025906;28;20032;-75
2022/09/23 07:52:39;;;;;;;12.43;6.68;;;;;;;24.58;36.51;101640.97;5011117;28;20397;-75
2022/09/23 07:55:06;;;;;;;10.18;6.55;;;;;;;22.80;39.07;101651.97;5037774;28;20030;-74
2022/09/23 07:57:32;;;;;;;12.73;6.75;;;;;;;22.69;39.29;101649.81;5021216;28;20429;-75
2022/09/23 07:59:59;;;;;;;11.68;7.07;;;;;;;23.76;37.42;101653.38;5028246;28;20017;-74
2022/09/23 08:02:24;;;;;;;13.05;6.65;;;;;;;23.94;37.12;101653.38;5031031;28;20116;-75
2022/09/23 08:04:49;;;;;;;13.90;6.57;;;;;;;23.79;37.37;101655.88;5028501;28;20108;-75
2022/09/23 08:07:15;;;;;;;10.35;6.97;;;;;;;24.41;36.36;101652.56;5030864;28;20548;-75
2022/09/23 08:09:42;;;;;;;15.82;7.38;;;;;;;24.22;36.90;101656.28;5030442;28;20029;-75
2022/09/23 08:12:14;;;;;;;13.77;7.57;;;;;;;23.84;38.17;101664.50;5062343;28;20029;-75
2022/09/23 08:14:40;;;;;;;15.02;7.60;;;;;;;23.86;37.76;101651.94;5030404;28;20366;-75
2022/09/23 08:17:06;;;;;;;12.73;7.07;;;;;;;24.65;36.47;101652.19;5014857;28;20029;-75
2022/09/23 08:19:32;;;;;;;9.15;6.28;;;;;;;24.82;36.20;101651.22;5011720;28;20084;-75
2022/09/23 08:21:57;;;;;;;14.35;6.85;;;;;;;25.51;35.09;101659.69;5010996;28;20128;-75
2022/09/23 08:24:25;;;;;;;13.45;6.75;;;;;;;26.03;34.26;101650.31;5044502;28;20058;-75
2022/09/23 08:26:52;;;;;;;14.13;6.10;;;;;;;24.28;36.07;101651.53;5010951;28;20120;-74
2022/09/23 08:29:20;;;;;;;11.02;6.35;;;;;;;24.27;35.91;101645.31;5010625;28;20099;-74
2022/09/23 08:31:48;;;;;;;8.65;6.25;;;;;;;24.98;35.52;101651.22;5027928;28;20025;-75
2022/09/23 08:34:18;;;;;;;9.73;6.38;;;;;;;23.28;37.51;101657.63;5031534;28;20049;-75
2022/09/23 08:36:44;;;;;;;16.13;6.20;;;;;;;25.18;34.65;101648.22;5030247;28;20051;-75
2022/09/23 08:39:14;;;;;;;11.30;6.10;;;;;;;24.71;35.53;101649.16;5029607;28;20030;-74
2022/09/23 08:41:51;;;;;;;12.60;6.00;;;;;;;25.60;33.64;101653.78;5018832;28;20025;-74
2022/09/23 08:44:30;;;;;;;13.68;6.18;;;;;;;24.85;35.28;101649.25;5026890;28;20050;-75
2022/09/23 08:47:09;;;;;;;14.02;6.05;;;;;;;25.67;33.97;101654.28;5029745;28;20040;-75
2022/09/23 08:49:44;;;;;;;12.30;6.38;;;;;;;25.96;33.54;101655.16;5031669;28;20059;-75
2022/09/23 08:52:24;;;;;;;10.88;5.78;;;;;;;26.12;33.24;101655.09;5028730;28;20091;-74
2022/09/23 08:54:50;;;;;;;15.32;6.25;;;;;;;26.01;33.34;101657.56;5021600;28;20029;-75
2022/09/23 08:58:00;;;;;;;13.30;5.85;;;;;;;26.61;32.26;101645.72;5030322;28;20324;-75
2022/09/23 09:00:35;;;;;;;10.75;5.80;;;;;;;27.43;31.30;101649.25;5026072;28;20057;-74
2022/09/23 09:03:11;;;;;;;11.55;5.80;;;;;;;26.58;32.35;101662.00;5018863;28;20022;-74
2022/09/23 09:05:37;;;;;;;13.18;6.40;;;;;;;26.71;32.63;101660.28;5048637;28;20112;-75
2022/09/23 09:08:02;;;;;;;10.95;5.88;;;;;;;26.64;31.75;101660.75;5026288;28;20108;-75
2022/09/23 09:10:34;;;;;;;10.88;5.80;;;;;;;27.04;31.81;101658.16;5016972;28;20069;-75
2022/09/23 09:13:09;;;;;;;11.20;5.90;;;;;;;25.93;33.51;101670.56;5009814;28;20032;-75
2022/09/23 09:15:50;;;;;;;17.55;6.35;;;;;;;26.94;31.84;101657.88;5011078;28;20036;-75
2022/09/23 09:18:19;;;;;;;10.60;6.45;;;;;;;27.38;31.52;101661.25;5011766;28;20022;-75
2022/09/23 09:20:56;;;;;;;17.25;6.90;;;;;;;26.63;32.63;101659.91;5012171;28;20025;-75
2022/09/23 09:23:42;;;;;;;9.27;6.22;;;;;;;27.21;31.44;101655.19;5024501;28;20108;-75
2022/09/23 09:26:15;;;;;;;9.88;5.93;;;;;;;28.13;30.75;101663.22;5031430;28;20029;-75
2022/09/23 09:29:12;;;;;;;14.65;5.90;;;;;;;28.15;30.74;101655.94;5027682;28;20032;-75
2022/09/23 09:31:41;;;;;;;12.38;5.72;;;;;;;27.22;31.92;101656.91;5019012;28;20052;-74
2022/09/23 09:34:25;;;;;;;9.27;5.65;;;;;;;27.63;30.82;101655.06;5027916;28;20115;-75
2022/09/23 09:37:13;;;;;;;8.82;5.50;;;;;;;26.46;32.83;101652.06;5030544;28;20436;-75
2022/09/23 09:39:38;;;;;;;9.88;5.60;;;;;;;27.29;31.33;101645.78;5063015;28;20037;-75
2022/09/23 09:42:06;;;;;;;8.00;5.68;;;;;;;26.31;33.23;101653.91;5030671;28;20083;-75
2022/09/23 09:44:57;;;;;;;12.85;5.60;;;;;;;27.28;30.80;101644.03;5022500;28;20057;-75
2022/09/23 09:47:39;;;;;;;11.63;5.88;;;;;;;27.76;31.09;101637.13;5010667;28;20080;-75
2022/09/23 09:50:10;;;;;;;10.50;5.55;;;;;;;27.61;31.31;101642.72;5023767;28;20041;-75
2022/09/23 09:52:36;;;;;;;12.05;5.47;;;;;;;27.51;31.48;101635.28;5036237;28;20470;-75
2022/09/23 09:55:11;;;;;;;9.88;5.47;;;;;;;27.23;31.70;101626.44;5028991;28;20068;-75
2022/09/23 09:57:42;;;;;;;14.43;6.70;;;;;;;28.06;30.83;101635.09;5045989;28;20474;-75
2022/09/23 10:00:20;;;;;;;7.60;5.47;;;;;;;28.16;30.76;101628.06;5058046;28;20029;-75
2022/09/23 10:02:50;;;;;;;11.60;5.50;;;;;;;28.47;30.92;101628.53;5019043;28;20350;-75
2022/09/23 10:05:29;;;;;;;9.88;5.60;;;;;;;28.06;30.92;101622.50;5016730;28;20478;-75
2022/09/23 10:07:54;;;;;;;15.98;5.97;;;;;;;28.13;30.49;101620.25;5009760;28;20029;-75
2022/09/23 10:10:24;;;;;;;8.88;5.50;;;;;;;27.02;31.97;101627.88;5012247;28;20041;-74
2022/09/23 10:12:51;;;;;;;10.60;5.45;;;;;;;26.53;33.01;101624.78;5027915;28;20034;-75
2022/09/23 10:15:30;;;;;;;9.35;5.80;;;;;;;26.82;33.32;101627.41;5032113;28;20492;-75
2022/09/23 10:17:56;;;;;;;16.23;5.95;;;;;;;26.83;32.66;101621.09;5036279;28;20059;-75
2022/09/23 10:20:22;;;;;;;9.20;5.07;;;;;;;27.24;32.04;101622.78;5032946;28;20126;-75
2022/09/23 10:22:47;;;;;;;9.68;6.28;;;;;;;27.11;32.21;101621.91;5030187;28;20108;-75
2022/09/23 10:25:25;;;;;;;12.73;5.85;;;;;;;28.15;30.87;101617.44;5032075;28;20032;-74
2022/09/23 10:27:50;;;;;;;12.93;6.15;;;;;;;26.55;33.28;101613.97;5031953;28;20021;-75
2022/09/23 10:30:25;;;;;;;10.73;5.90;;;;;;;26.87;32.36;101627.97;5034509;28;20496;-75
2022/09/23 10:32:53;;;;;;;8.05;5.88;;;;;;;26.43;33.18;101631.69;5027644;28;20385;-74
2022/09/23 10:35:25;;;;;;;12.57;5.63;;;;;;;27.63;32.05;101621.97;5024609;28;20038;-75
2022/09/23 10:37:58;;;;;;;8.80;5.50;;;;;;;27.03;32.27;101624.25;5027680;28;20021;-74
2022/09/23 10:46:47;;;;;;;11.35;5.65;;;;;;;27.05;32.83;101617.81;5015204;28;20068;-75
2022/09/23 10:49:51;;;;;;;10.48;5.43;;;;;;;28.33;31.11;101615.22;5012712;28;20390;-75
2022/09/23 10:52:42;;;;;;;11.50;5.10;;;;;;;28.89;29.70;101623.66;5013241;28;20556;-75
2022/09/23 10:55:27;;;;;;;10.27;6.07;;;;;;;28.87;30.44;101630.97;5030445;28;20025;-75
2022/09/23 10:58:18;;;;;;;9.40;5.13;;;;;;;27.24;33.10;101622.78;5021076;28;20028;-75
2022/09/23 11:00:54;;;;;;;9.43;5.30;;;;;;;26.59;33.26;101621.69;5013520;28;20022;-75
2022/09/23 11:03:44;;;;;;;8.65;5.00;;;;;;;28.21;31.32;101612.47;5013036;28;20075;-75
2022/09/23 11:06:10;;;;;;;11.27;5.10;;;;;;;27.21;32.02;101617.63;5027617;28;20022;-76
2022/09/23 11:09:09;;;;;;;9.52;4.72;;;;;;;28.10;31.37;101610.56;5034374;28;20041;-75
2022/09/23 11:11:40;;;;;;;6.57;4.15;;;;;;;28.14;32.04;101610.34;5033664;28;20079;-75
2022/09/23 11:14:24;;;;;;;8.45;5.25;;;;;;;28.05;32.20;101611.88;5018384;28;20036;-75
2022/09/23 11:17:13;;;;;;;6.60;4.78;;;;;;;26.65;33.78;101609.69;5013204;28;20057;-75
2022/09/23 11:20:12;;;;;;;10.30;4.85;;;;;;;28.08;31.88;101611.66;5012629;28;20507;-75
2022/09/23 11:23:17;;;;;;;8.38;5.00;;;;;;;26.38;33.82;101617.75;5013477;28;20033;-75
2022/09/23 11:25:58;;;;;;;8.30;4.95;;;;;;;26.71;34.07;101612.03;5012351;28;20081;-75
2022/09/23 11:28:38;;;;;;;5.90;4.60;;;;;;;26.89;33.82;101601.03;5046130;28;20068;-75
2022/09/23 11:31:17;;;;;;;7.20;4.28;;;;;;;27.83;32.36;101607.16;5045902;28;20048;-75
2022/09/23 11:33:57;;;;;;;11.60;5.00;;;;;;;28.38;31.89;101607.69;5054169;28;20087;-75
2022/09/23 11:36:29;;;;;;;12.57;5.63;;;;;;;28.80;31.24;101600.13;5017541;28;20030;-75
2022/09/23 11:38:57;;;;;;;8.05;4.68;;;;;;;27.97;32.16;101601.63;5044865;28;20040;-74
2022/09/23 11:41:29;;;;;;;8.95;6.03;;;;;;;28.65;31.39;101593.22;5012869;28;20013;-74
2022/09/23 11:44:22;;;;;;;8.13;4.57;;;;;;;28.75;31.15;101589.69;5012674;28;20048;-75
2022/09/23 11:46:58;;;;;;;10.35;4.97;;;;;;;29.71;30.44;101598.50;5006525;28;20044;-75